createdAt,value
2023-04-20T00:01:55.269Z,2.57
2023-04-20T00:04:23.675Z,2.40
2023-04-20T00:06:52.112Z,2.20
2023-04-20T00:09:20.372Z,2.40
2023-04-20T00:11:48.687Z,2.53
2023-04-20T00:14:17.325Z,2.60
2023-04-20T00:16:47.129Z,2.80
2023-04-20T00:19:15.663Z,2.87
2023-04-20T00:21:44.110Z,2.50
2023-04-20T00:24:12.373Z,2.17
2023-04-20T00:26:40.713Z,2.60
2023-04-20T00:29:09.032Z,2.47
2023-04-20T00:31:37.280Z,2.60
2023-04-20T00:34:06.954Z,2.90
2023-04-20T00:36:35.141Z,2.70
2023-04-20T00:39:05.102Z,2.47
2023-04-20T00:41:33.459Z,2.60
2023-04-20T00:44:01.713Z,2.70
2023-04-20T00:46:30.021Z,2.37
2023-04-20T00:48:58.482Z,2.60
2023-04-20T00:51:30.409Z,2.83
2023-04-20T00:53:58.762Z,2.60
2023-04-20T00:56:27.111Z,3.00
2023-04-20T00:58:56.004Z,2.90
2023-04-20T01:01:24.523Z,2.83
2023-04-20T01:03:52.923Z,2.60
2023-04-20T01:06:21.352Z,3.10
2023-04-20T01:08:52.722Z,2.83
2023-04-20T01:11:21.010Z,2.60
2023-04-20T01:13:49.883Z,2.60
2023-04-20T01:16:18.434Z,2.67
2023-04-20T01:18:48.468Z,2.90
2023-04-20T01:21:18.527Z,2.97
2023-04-20T01:23:48.452Z,3.10
2023-04-20T01:26:18.423Z,2.83
2023-04-20T01:28:47.316Z,3.00
2023-04-20T01:31:15.867Z,3.00
2023-04-20T01:33:44.137Z,2.83
2023-04-20T01:36:12.773Z,2.80
2023-04-20T01:38:41.289Z,2.70
2023-04-20T01:41:11.715Z,3.03
2023-04-20T01:43:40.859Z,2.90
2023-04-20T01:46:09.470Z,3.00
2023-04-20T01:48:37.817Z,2.40
2023-04-20T01:51:06.130Z,2.63
2023-04-20T01:53:34.421Z,2.77
2023-04-20T01:56:02.693Z,2.50
2023-04-20T01:58:32.464Z,2.67
2023-04-20T02:01:02.715Z,2.80
2023-04-20T02:03:31.281Z,2.37
2023-04-20T02:05:59.796Z,2.80
2023-04-20T02:08:28.021Z,2.70
2023-04-20T02:10:56.338Z,2.67
2023-04-20T02:13:24.572Z,2.20
2023-04-20T02:15:55.657Z,2.40
2023-04-20T02:18:24.586Z,2.23
2023-04-20T02:20:53.768Z,2.50
2023-04-20T02:23:22.034Z,2.23
2023-04-20T02:25:50.302Z,2.50
2023-04-20T02:28:18.537Z,2.40
2023-04-20T02:30:46.802Z,2.47
2023-04-20T02:33:16.732Z,2.27
2023-04-20T02:35:45.263Z,2.27
2023-04-20T02:38:13.568Z,2.50
2023-04-20T02:40:41.869Z,2.40
2023-04-20T02:43:10.266Z,2.20
2023-04-20T02:45:38.699Z,2.70
2023-04-20T02:48:07.627Z,2.30
2023-04-20T02:50:38.482Z,2.47
2023-04-20T02:53:07.075Z,2.60
2023-04-20T02:55:35.301Z,2.60
2023-04-20T02:58:04.797Z,2.67
2023-04-20T03:00:33.144Z,2.40
2023-04-20T03:03:01.898Z,2.90
2023-04-20T03:05:30.175Z,2.70
2023-04-20T03:07:59.870Z,2.50
2023-04-20T03:10:28.139Z,3.10
2023-04-20T03:12:56.455Z,3.23
2023-04-20T03:15:25.185Z,2.97
2023-04-20T03:17:53.712Z,2.60
2023-04-20T03:20:22.091Z,2.80
2023-04-20T03:22:50.356Z,2.80
2023-04-20T03:25:20.425Z,2.80
2023-04-20T03:27:48.762Z,3.33
2023-04-20T03:30:17.743Z,2.73
2023-04-20T03:32:46.328Z,3.00
2023-04-20T03:35:14.939Z,2.47
2023-04-20T03:37:43.208Z,3.10
2023-04-20T03:40:12.446Z,3.00
2023-04-20T03:42:42.806Z,3.30
2023-04-20T03:45:11.921Z,3.50
2023-04-20T03:47:40.236Z,2.97
2023-04-20T03:50:09.176Z,3.10
2023-04-20T03:52:37.544Z,2.80
2023-04-20T03:55:07.080Z,3.17
2023-04-20T03:57:35.815Z,2.93
2023-04-20T04:00:06.264Z,2.70
2023-04-20T04:02:37.967Z,2.90
2023-04-20T04:05:08.134Z,3.17
2023-04-20T04:07:36.446Z,2.80
2023-04-20T04:10:06.036Z,3.03
2023-04-20T04:12:34.347Z,2.80
2023-04-20T04:15:02.790Z,3.30
2023-04-20T04:17:32.525Z,3.13
2023-04-20T04:20:00.880Z,3.17
2023-04-20T04:22:30.508Z,3.07
2023-04-20T04:24:58.952Z,3.20
2023-04-20T04:27:30.262Z,2.90
2023-04-20T04:29:58.476Z,3.00
2023-04-20T04:32:26.847Z,3.30
2023-04-20T04:34:56.680Z,3.10
2023-04-20T04:37:24.933Z,3.40
2023-04-20T04:39:53.195Z,3.00
2023-04-20T04:42:21.461Z,3.30
2023-04-20T04:44:51.786Z,3.13
2023-04-20T04:47:22.122Z,3.03
2023-04-20T04:49:50.566Z,2.90
2023-04-20T04:52:20.267Z,3.20
2023-04-20T04:54:49.462Z,3.20
2023-04-20T04:57:17.757Z,3.17
2023-04-20T04:59:46.069Z,3.33
2023-04-20T05:02:14.361Z,2.93
2023-04-20T05:04:42.878Z,2.90
2023-04-20T05:07:11.584Z,2.40
2023-04-20T05:09:41.356Z,2.73
2023-04-20T05:12:09.662Z,2.60
2023-04-20T05:14:38.010Z,2.97
2023-04-20T05:17:06.532Z,2.70
2023-04-20T05:19:35.106Z,3.00
2023-04-20T05:22:03.302Z,2.77
2023-04-20T05:24:31.554Z,2.80
2023-04-20T05:27:01.537Z,2.77
2023-04-20T05:29:29.787Z,2.70
2023-04-20T05:31:58.165Z,2.40
2023-04-20T05:34:26.804Z,2.40
2023-04-20T05:36:57.003Z,2.40
2023-04-20T05:39:25.365Z,2.57
2023-04-20T05:41:53.578Z,2.90
2023-04-20T05:44:23.294Z,2.60
2023-04-20T05:46:51.490Z,2.60
2023-04-20T05:49:19.867Z,2.50
2023-04-20T05:51:48.526Z,2.50
2023-04-20T05:54:16.909Z,2.30
2023-04-20T05:56:45.606Z,2.70
2023-04-20T05:59:14.026Z,2.90
2023-04-20T06:01:43.814Z,3.00
2023-04-20T06:04:12.600Z,3.20
2023-04-20T06:06:41.463Z,3.13
2023-04-20T06:09:10.229Z,2.90
2023-04-20T06:11:38.465Z,3.37
2023-04-20T06:14:06.760Z,3.90
2023-04-20T06:16:35.127Z,4.23
2023-04-20T06:19:04.840Z,4.43
2023-04-20T06:21:34.833Z,4.40
2023-04-20T06:24:03.159Z,4.70
2023-04-20T06:26:31.642Z,4.90
2023-04-20T06:28:59.887Z,4.77
2023-04-20T06:31:28.250Z,4.83
2023-04-20T06:33:56.537Z,5.40
2023-04-20T06:36:27.759Z,5.60
2023-04-20T06:38:56.418Z,5.73
2023-04-20T06:41:24.922Z,6.03
2023-04-20T06:43:53.177Z,5.33
2023-04-20T06:46:21.475Z,5.53
2023-04-20T06:48:49.851Z,5.20
2023-04-20T06:51:18.138Z,5.20
2023-04-20T06:53:48.058Z,5.10
2023-04-20T06:56:16.336Z,5.20
2023-04-20T06:58:44.892Z,5.63
2023-04-20T07:01:13.238Z,5.47
2023-04-20T07:03:41.760Z,5.50
2023-04-20T07:06:11.441Z,5.60
2023-04-20T07:08:41.454Z,5.03
2023-04-20T07:11:11.132Z,5.30
2023-04-20T07:13:39.432Z,5.20
2023-04-20T07:16:08.731Z,5.20
2023-04-20T07:18:37.471Z,5.83
2023-04-20T07:21:05.994Z,5.50
2023-04-20T07:23:34.290Z,5.90
2023-04-20T07:26:02.526Z,5.83
2023-04-20T07:28:32.252Z,5.53
2023-04-20T07:31:00.612Z,5.47
2023-04-20T07:33:29.946Z,5.73
2023-04-20T07:35:58.219Z,6.10
2023-04-20T07:38:26.533Z,6.23
2023-04-20T07:40:55.194Z,5.90
2023-04-20T07:43:23.613Z,5.20
2023-04-20T07:45:53.339Z,6.37
2023-04-20T07:48:21.721Z,7.63
2023-04-20T07:50:49.999Z,12.77
2023-04-20T07:53:18.247Z,21.40
2023-04-20T07:55:47.165Z,25.77
2023-04-20T07:58:17.530Z,16.83
2023-04-20T08:00:47.592Z,9.60
2023-04-20T08:03:17.422Z,7.00
2023-04-20T08:05:46.082Z,5.93
2023-04-20T08:08:14.473Z,5.40
2023-04-20T08:10:42.836Z,5.27
2023-04-20T08:13:11.061Z,4.47
2023-04-20T08:15:39.438Z,4.30
2023-04-20T08:18:07.880Z,4.13
2023-04-20T08:20:37.479Z,7.77
2023-04-20T08:23:06.024Z,10.00
2023-04-20T08:25:34.401Z,9.70
2023-04-20T08:28:02.931Z,10.60
2023-04-20T08:30:32.467Z,12.77
2023-04-20T08:33:00.941Z,17.47
2023-04-20T08:35:29.318Z,12.97
2023-04-20T08:37:59.041Z,7.73
2023-04-20T08:40:28.372Z,6.03
2023-04-20T08:42:57.548Z,7.67
2023-04-20T08:45:25.907Z,6.43
2023-04-20T08:47:54.407Z,5.50
2023-04-20T08:50:22.942Z,5.97
2023-04-20T08:52:51.464Z,5.27
2023-04-20T08:55:21.632Z,4.60
2023-04-20T08:57:50.621Z,4.50
2023-04-20T09:00:19.853Z,3.88
2023-04-20T09:02:52.447Z,4.60
2023-04-20T09:05:28.511Z,3.50
2023-04-20T09:07:59.028Z,3.50
2023-04-20T09:10:41.268Z,3.50
2023-04-20T09:13:09.654Z,3.17
2023-04-20T09:15:38.064Z,3.70
2023-04-20T09:18:16.397Z,4.07
2023-04-20T09:20:45.007Z,4.27
2023-04-20T09:23:14.142Z,3.60
2023-04-20T09:25:46.440Z,4.13
2023-04-20T09:28:15.403Z,4.70
2023-04-20T09:30:45.371Z,4.40
2023-04-20T09:33:14.441Z,4.40
2023-04-20T09:35:43.990Z,4.30
2023-04-20T09:38:16.463Z,4.85
2023-04-20T09:40:46.248Z,5.20
2023-04-20T09:43:20.136Z,4.30
2023-04-20T09:45:49.375Z,4.55
2023-04-20T09:48:19.725Z,4.10
2023-04-20T09:50:50.598Z,3.83
2023-04-20T09:53:20.141Z,3.42
2023-04-20T09:55:51.394Z,3.55
2023-04-20T09:58:20.961Z,3.20
2023-04-20T10:00:50.049Z,3.60
2023-04-20T10:03:19.247Z,3.53
2023-04-20T10:05:47.755Z,3.88
2023-04-20T10:08:16.179Z,3.42
2023-04-20T10:10:46.178Z,3.30
2023-04-20T10:13:16.974Z,3.78
2023-04-20T10:15:45.328Z,3.00
2023-04-20T10:18:18.843Z,2.75
2023-04-20T10:20:47.673Z,3.60
2023-04-20T10:23:16.495Z,3.35
2023-04-20T10:25:47.536Z,3.05
2023-04-20T10:28:17.772Z,3.25
2023-04-20T10:30:52.689Z,3.20
2023-04-20T10:33:22.829Z,3.30
2023-04-20T10:35:54.950Z,3.60
2023-04-20T10:38:31.768Z,3.15
2023-04-20T10:41:08.273Z,3.10
2023-04-20T10:43:39.285Z,2.88
2023-04-20T10:46:16.088Z,3.15
2023-04-20T10:48:57.716Z,3.25
2023-04-20T10:51:26.353Z,2.90
2023-04-20T10:54:02.384Z,3.17
2023-04-20T10:56:38.470Z,2.92
2023-04-20T10:59:13.385Z,2.97
2023-04-20T11:01:42.710Z,2.70
2023-04-20T11:04:12.215Z,3.03
2023-04-20T11:06:41.249Z,3.75
2023-04-20T11:09:20.779Z,3.03
2023-04-20T11:12:00.452Z,3.47
2023-04-20T11:14:30.885Z,3.20
2023-04-20T11:16:59.510Z,3.17
2023-04-20T11:19:29.514Z,2.97
2023-04-20T11:21:58.117Z,2.97
2023-04-20T11:24:27.704Z,3.30
2023-04-20T11:26:56.847Z,3.15
2023-04-20T11:29:34.373Z,3.20
2023-04-20T11:32:05.637Z,3.00
2023-04-20T11:34:34.967Z,2.40
2023-04-20T11:37:06.667Z,2.40
2023-04-20T11:39:35.435Z,2.58
2023-04-20T11:42:03.768Z,2.40
2023-04-20T11:44:34.485Z,2.47
2023-04-20T11:47:02.760Z,2.72
2023-04-20T11:49:31.060Z,2.78
2023-04-20T11:51:59.842Z,2.70
2023-04-20T11:54:29.964Z,2.53
2023-04-20T11:56:59.112Z,2.67
2023-04-20T11:59:27.455Z,2.20
2023-04-20T12:01:57.659Z,2.40
2023-04-20T12:04:26.274Z,2.30
2023-04-20T12:06:55.226Z,2.10
2023-04-20T12:09:23.496Z,2.40
2023-04-20T12:11:51.780Z,2.13
2023-04-20T12:14:20.152Z,2.42
2023-04-20T12:16:48.471Z,2.20
2023-04-20T12:19:18.491Z,2.10
2023-04-20T12:21:48.064Z,1.92
2023-04-20T12:24:16.340Z,2.38
2023-04-20T12:26:44.609Z,2.25
2023-04-20T12:29:12.849Z,2.40
2023-04-20T12:31:41.223Z,2.47
2023-04-20T12:34:09.510Z,2.20
2023-04-20T12:36:39.268Z,2.40
2023-04-20T12:39:07.659Z,2.30
2023-04-20T12:41:36.281Z,2.10
2023-04-20T12:44:15.816Z,2.33
2023-04-20T12:46:44.220Z,14.48
2023-04-20T12:49:12.517Z,8.85
2023-04-20T12:51:42.180Z,4.20
2023-04-20T12:54:10.547Z,3.15
2023-04-20T12:56:38.786Z,2.40
2023-04-20T12:59:07.056Z,2.38
2023-04-20T13:01:35.711Z,2.10
2023-04-20T13:04:04.163Z,2.20
2023-04-20T13:06:32.829Z,2.28
2023-04-20T13:09:04.044Z,2.50
2023-04-20T13:11:32.502Z,2.50
2023-04-20T13:14:00.906Z,2.67
2023-04-20T13:16:29.451Z,2.47
2023-04-20T13:18:58.089Z,2.55
2023-04-20T13:21:26.443Z,2.50
2023-04-20T13:23:55.540Z,2.70
2023-04-20T13:26:26.783Z,2.67
2023-04-20T13:28:57.589Z,2.30
2023-04-20T13:31:26.058Z,2.50
2023-04-20T13:33:54.839Z,2.58
2023-04-20T13:36:23.890Z,2.10
2023-04-20T13:38:53.595Z,2.50
2023-04-20T13:41:21.962Z,2.20
2023-04-20T13:43:51.668Z,2.50
2023-04-20T13:46:20.945Z,2.40
2023-04-20T13:48:49.366Z,2.60
2023-04-20T13:51:17.803Z,2.45
2023-04-20T13:53:48.055Z,2.20
2023-04-20T13:56:17.463Z,5.95
2023-04-20T13:58:45.838Z,8.95
2023-04-20T14:01:16.742Z,6.28
2023-04-20T14:03:47.353Z,3.80
2023-04-20T14:06:15.954Z,3.10
2023-04-20T14:08:44.378Z,3.40
2023-04-20T14:11:12.655Z,2.90
2023-04-20T14:13:41.336Z,2.40
2023-04-20T14:16:11.081Z,2.60
2023-04-20T14:18:41.229Z,2.63
2023-04-20T14:21:10.085Z,2.70
2023-04-20T14:23:38.386Z,2.40
2023-04-20T14:26:07.458Z,2.50
2023-04-20T14:28:35.946Z,1.90
2023-04-20T14:31:04.773Z,2.30
2023-04-20T14:33:33.028Z,2.15
2023-04-20T14:36:02.663Z,2.17
2023-04-20T14:38:31.160Z,2.28
2023-04-20T14:41:00.054Z,2.00
2023-04-20T14:43:28.370Z,2.28
2023-04-20T14:45:58.822Z,2.10
2023-04-20T14:48:27.256Z,2.22
2023-04-20T14:50:55.703Z,2.20
2023-04-20T14:53:25.358Z,2.10
2023-04-20T14:55:53.714Z,1.98
2023-04-20T14:58:22.037Z,1.77
2023-04-20T15:00:50.645Z,1.90
2023-04-20T15:03:19.954Z,2.22
2023-04-20T15:05:48.374Z,2.45
2023-04-20T15:08:16.873Z,2.15
2023-04-20T15:10:46.633Z,2.08
2023-04-20T15:13:15.111Z,2.28
2023-04-20T15:15:48.726Z,2.08
2023-04-20T15:18:17.463Z,2.03
2023-04-20T15:20:45.796Z,1.80
2023-04-20T15:23:14.083Z,1.95
2023-04-20T15:25:42.366Z,2.17
2023-04-20T15:28:12.307Z,1.60
2023-04-20T15:30:41.039Z,2.00
2023-04-20T15:33:09.442Z,1.90
2023-04-20T15:35:37.835Z,1.48
2023-04-20T15:38:06.282Z,1.67
2023-04-20T15:40:34.594Z,1.42
2023-04-20T15:43:03.640Z,1.50
2023-04-20T15:45:33.312Z,1.67
2023-04-20T15:48:02.072Z,1.38
2023-04-20T15:50:30.449Z,1.30
2023-04-20T15:52:58.670Z,1.40
2023-04-20T15:55:27.376Z,1.80
2023-04-20T15:57:58.189Z,1.63
2023-04-20T16:00:26.964Z,1.50
2023-04-20T16:02:56.904Z,1.50
2023-04-20T16:05:27.044Z,1.38
2023-04-20T16:07:55.761Z,2.85
2023-04-20T16:10:24.231Z,1.40
2023-04-20T16:12:52.521Z,1.35
2023-04-20T16:15:21.708Z,1.10
2023-04-20T16:17:50.982Z,1.42
2023-04-20T16:20:21.498Z,1.10
2023-04-20T16:22:49.815Z,1.30
2023-04-20T16:25:23.215Z,1.30
2023-04-20T16:27:52.112Z,1.30
2023-04-20T16:30:21.211Z,1.20
2023-04-20T16:32:49.827Z,1.45
2023-04-20T16:35:18.368Z,1.40
2023-04-20T16:37:48.307Z,1.42
2023-04-20T16:40:16.714Z,1.40
2023-04-20T16:42:45.010Z,1.50
2023-04-20T16:45:13.518Z,1.40
2023-04-20T16:47:41.871Z,1.60
2023-04-20T16:50:12.511Z,1.80
2023-04-20T16:52:41.136Z,1.60
2023-04-20T16:55:11.569Z,1.50
2023-04-20T16:57:40.043Z,1.83
2023-04-20T17:00:10.802Z,3.03
2023-04-20T17:02:39.409Z,4.93
2023-04-20T17:05:08.753Z,5.25
2023-04-20T17:07:37.515Z,4.47
2023-04-20T17:10:06.481Z,4.28
2023-04-20T17:12:36.289Z,4.07
2023-04-20T17:15:04.898Z,3.70
2023-04-20T17:17:34.179Z,3.80
2023-04-20T17:20:05.293Z,2.33
2023-04-20T17:22:33.516Z,2.25
2023-04-20T17:25:02.286Z,2.00
2023-04-20T17:27:30.644Z,1.90
2023-04-20T17:30:02.071Z,1.80
2023-04-20T17:32:30.931Z,1.92
2023-04-20T17:34:59.358Z,1.90
2023-04-20T17:37:28.442Z,2.00
2023-04-20T17:39:56.814Z,1.90
2023-04-20T17:42:25.172Z,2.17
2023-04-20T17:44:53.490Z,1.80
2023-04-20T17:47:23.318Z,2.10
2023-04-20T17:49:52.091Z,2.22
2023-04-20T17:52:22.256Z,2.03
2023-04-20T17:54:50.643Z,2.08
2023-04-20T17:57:18.968Z,2.03
2023-04-20T17:59:47.150Z,2.60
2023-04-20T18:02:17.101Z,3.70
2023-04-20T18:04:47.240Z,4.05
2023-04-20T18:07:17.973Z,3.00
2023-04-20T18:09:46.676Z,2.83
2023-04-20T18:12:15.043Z,3.20
2023-04-20T18:14:44.225Z,3.10
2023-04-20T18:17:12.732Z,3.40
2023-04-20T18:19:41.347Z,3.80
2023-04-20T18:22:11.042Z,3.97
2023-04-20T18:24:39.395Z,3.37
2023-04-20T18:27:07.631Z,3.53
2023-04-20T18:29:36.092Z,3.58
2023-04-20T18:32:04.630Z,3.55
2023-04-20T18:34:33.216Z,3.47
2023-04-20T18:37:01.539Z,3.07
2023-04-20T18:39:31.154Z,3.15
2023-04-20T18:41:59.516Z,3.47
2023-04-20T18:44:29.268Z,3.67
2023-04-20T18:46:57.661Z,3.30
2023-04-20T18:49:26.147Z,4.27
2023-04-20T18:51:54.640Z,4.80
2023-04-20T18:54:22.981Z,4.83
2023-04-20T18:56:54.768Z,5.97
2023-04-20T18:59:24.772Z,6.70
2023-04-20T19:01:53.168Z,5.30
2023-04-20T19:04:21.875Z,5.80
2023-04-20T19:06:50.457Z,4.90
2023-04-20T19:09:18.754Z,4.20
2023-04-20T19:11:47.160Z,4.00
2023-04-20T19:14:17.685Z,3.87
2023-04-20T19:16:46.229Z,3.63
2023-04-20T19:19:15.164Z,3.90
2023-04-20T19:21:43.657Z,5.50
2023-04-20T19:24:12.033Z,5.20
2023-04-20T19:26:40.498Z,4.60
2023-04-20T19:29:08.786Z,3.97
2023-04-20T19:31:40.270Z,3.30
2023-04-20T19:34:09.380Z,3.37
2023-04-20T19:36:37.750Z,3.30
2023-04-20T19:39:07.228Z,3.23
2023-04-20T19:41:36.344Z,3.03
2023-04-20T19:44:06.542Z,3.17
2023-04-20T19:46:35.388Z,3.17
2023-04-20T19:49:05.264Z,3.17
2023-04-20T19:51:34.151Z,3.27
2023-04-20T19:54:04.868Z,3.00
2023-04-20T19:56:33.745Z,3.30
2023-04-20T19:59:02.198Z,3.23
2023-04-20T20:01:30.840Z,3.33
2023-04-20T20:03:59.614Z,2.93
2023-04-20T20:06:29.852Z,3.10
2023-04-20T20:08:59.023Z,2.83
2023-04-20T20:11:27.944Z,2.80
2023-04-20T20:13:56.493Z,3.00
2023-04-20T20:16:25.053Z,2.97
2023-04-20T20:18:53.587Z,3.40
2023-04-20T20:21:22.584Z,2.73
2023-04-20T20:23:52.612Z,2.90
2023-04-20T20:26:21.230Z,3.50
2023-04-20T20:28:49.768Z,3.47
2023-04-20T20:31:18.149Z,3.60
2023-04-20T20:33:46.653Z,3.30
2023-04-20T20:36:17.720Z,2.97
2023-04-20T20:38:47.434Z,3.10
2023-04-20T20:41:18.489Z,3.20
2023-04-20T20:43:47.345Z,3.40
2023-04-20T20:46:15.982Z,3.40
2023-04-20T20:48:44.289Z,3.33
2023-04-20T20:51:12.895Z,2.93
2023-04-20T20:53:41.280Z,3.53
2023-04-20T20:56:09.594Z,3.23
2023-04-20T20:58:39.303Z,3.50
2023-04-20T21:01:07.787Z,3.20
2023-04-20T21:03:36.940Z,3.60
2023-04-20T21:06:05.930Z,3.70
2023-04-20T21:08:34.248Z,4.53
2023-04-20T21:11:02.468Z,4.37
2023-04-20T21:13:30.705Z,4.40
2023-04-20T21:16:00.371Z,3.70
2023-04-20T21:18:28.936Z,3.80
2023-04-20T21:20:57.242Z,3.60
2023-04-20T21:23:25.511Z,3.20
2023-04-20T21:25:53.827Z,3.50
2023-04-20T21:28:22.094Z,3.80
2023-04-20T21:30:50.500Z,4.07
2023-04-20T21:33:20.169Z,3.60
2023-04-20T21:35:48.458Z,3.33
2023-04-20T21:38:16.784Z,3.40
2023-04-20T21:40:45.355Z,3.50
2023-04-20T21:43:13.948Z,3.30
2023-04-20T21:45:42.469Z,3.23
2023-04-20T21:48:10.821Z,3.10
2023-04-20T21:50:40.534Z,3.00
2023-04-20T21:53:08.791Z,3.50
2023-04-20T21:55:37.050Z,3.60
2023-04-20T21:58:05.311Z,3.63
2023-04-20T22:00:33.594Z,3.60
2023-04-20T22:03:01.909Z,3.90
2023-04-20T22:05:30.473Z,4.00
2023-04-20T22:08:00.277Z,3.63
2023-04-20T22:10:28.749Z,3.30
2023-04-20T22:12:57.067Z,3.80
2023-04-20T22:15:26.396Z,4.27
2023-04-20T22:17:54.837Z,4.10
2023-04-20T22:20:23.262Z,4.30
2023-04-20T22:22:51.638Z,3.90
2023-04-20T22:25:21.375Z,3.73
2023-04-20T22:27:49.788Z,3.23
2023-04-20T22:30:18.462Z,3.30
2023-04-20T22:32:46.865Z,3.20
2023-04-20T22:35:15.401Z,3.40
2023-04-20T22:37:43.781Z,3.27
2023-04-20T22:40:12.580Z,3.30
2023-04-20T22:42:42.346Z,3.30
2023-04-20T22:45:11.995Z,2.97
2023-04-20T22:47:40.680Z,3.03
2023-04-20T22:50:12.376Z,3.33
2023-04-20T22:52:40.784Z,3.03
2023-04-20T22:55:11.288Z,3.27
2023-04-20T22:57:39.818Z,3.07
2023-04-20T23:00:13.901Z,3.37
2023-04-20T23:02:42.845Z,3.33
2023-04-20T23:05:11.846Z,3.37
2023-04-20T23:07:40.489Z,3.17
2023-04-20T23:10:11.385Z,2.90
2023-04-20T23:12:39.723Z,3.03
2023-04-20T23:15:10.977Z,2.90
2023-04-20T23:17:39.483Z,3.07
2023-04-20T23:20:11.010Z,3.23
2023-04-20T23:22:39.355Z,3.10
2023-04-20T23:25:09.905Z,2.80
2023-04-20T23:27:38.334Z,2.57
2023-04-20T23:30:10.203Z,2.70
2023-04-20T23:32:38.616Z,3.20
2023-04-20T23:35:07.679Z,3.10
2023-04-20T23:37:36.068Z,2.90
2023-04-20T23:40:07.418Z,3.17
2023-04-20T23:42:37.606Z,2.60
2023-04-20T23:45:07.313Z,2.77
2023-04-20T23:47:37.471Z,3.17
2023-04-20T23:50:07.147Z,2.80
2023-04-20T23:52:36.083Z,2.90
2023-04-20T23:55:04.952Z,3.20
2023-04-20T23:57:33.284Z,2.63
